Etusivu
METAR-TAF:

METAR-TAF

Lentoasemat :

Rochelle Municipal Airport (Koritz Field)

Rochelle, Illinois, Yhdysvallat

Leveyspiiri: 41-53-35N, Pituuspiiri: 089-04-42W, korkeus merenpinnasta: 238 m

Tämänhetkinen sää

Tämä raportti tehtiin 11 minuuttia sitten, kello 13.35 UTC
Tuuli 5 kn etelästä/lounaasta
Lämpötila 17°C
Kosteus 77%
Ilmanpaine 1021 hPa
Näkyvyys: 16.1 km
Hajanaisia pilviä 5000 ft:n korkeudessa

METAR: KRPJ 051335Z AUTO 20005KT 10SM SCT050 17/13 A3014 RMK AO2 T01680132

Aika: 08:46 (13:46 UTC)


TAF: puuttuu

Säähavainnot ja -ennusteet yli 4000 lentoasemalta (METAR- ja TAF-raportit).

Käytössä olevat sääasemat on merkitty karttaan keltaisilla ja punaisilla pisteillä.

Aseta hiiri pisteen päälle nähdäksesi sääaseman nimen.

Klikkaa sitten nähdäksesi säähavainnot ja -ennusteet.

Kartan vaihtaminen: klikkaa mustalla rastilla varustettuja vihreitä pisteitä, niin voit zoomata sisään; viivalla varustettua vihreää pistettä, niin voit zoomata ulos tai vihreitä nuolia, niin pääset viereisille kartoille.


METAR-TAF: